sensor_id;sensor_type;location;lat;lon;timestamp;P1;durP1;ratioP1;P2;durP2;ratioP2
41755;SDS011;27435;48.480;9.258;2022-07-22T00:01:31;6.32;;;4.88;;
41755;SDS011;27435;48.480;9.258;2022-07-22T00:03:57;9.00;;;6.32;;
41755;SDS011;27435;48.480;9.258;2022-07-22T00:06:22;10.05;;;5.65;;
41755;SDS011;27435;48.480;9.258;2022-07-22T00:08:48;11.32;;;6.18;;
41755;SDS011;27435;48.480;9.258;2022-07-22T00:11:14;9.00;;;5.88;;
41755;SDS011;27435;48.480;9.258;2022-07-22T00:13:39;12.95;;;6.00;;
41755;SDS011;27435;48.480;9.258;2022-07-22T00:16:05;10.00;;;6.35;;
41755;SDS011;27435;48.480;9.258;2022-07-22T00:18:31;11.00;;;6.20;;
41755;SDS011;27435;48.480;9.258;2022-07-22T00:20:57;9.50;;;6.85;;
41755;SDS011;27435;48.480;9.258;2022-07-22T00:23:23;10.40;;;6.35;;
41755;SDS011;27435;48.480;9.258;2022-07-22T00:25:48;10.35;;;6.93;;
41755;SDS011;27435;48.480;9.258;2022-07-22T00:28:14;10.88;;;6.28;;
41755;SDS011;27435;48.480;9.258;2022-07-22T00:30:39;13.80;;;6.50;;
41755;SDS011;27435;48.480;9.258;2022-07-22T00:33:05;8.23;;;6.25;;
41755;SDS011;27435;48.480;9.258;2022-07-22T00:35:31;10.65;;;6.85;;
41755;SDS011;27435;48.480;9.258;2022-07-22T00:37:56;9.98;;;5.95;;
41755;SDS011;27435;48.480;9.258;2022-07-22T00:40:22;9.75;;;6.65;;
41755;SDS011;27435;48.480;9.258;2022-07-22T00:42:47;11.15;;;6.28;;
41755;SDS011;27435;48.480;9.258;2022-07-22T00:45:14;8.10;;;5.60;;
41755;SDS011;27435;48.480;9.258;2022-07-22T00:47:40;9.85;;;5.78;;
41755;SDS011;27435;48.480;9.258;2022-07-22T00:50:05;13.63;;;6.40;;
41755;SDS011;27435;48.480;9.258;2022-07-22T00:52:32;11.63;;;6.72;;
41755;SDS011;27435;48.480;9.258;2022-07-22T00:54:58;8.85;;;6.30;;
41755;SDS011;27435;48.480;9.258;2022-07-22T00:57:25;9.38;;;5.90;;
41755;SDS011;27435;48.480;9.258;2022-07-22T00:59:51;9.68;;;6.00;;
41755;SDS011;27435;48.480;9.258;2022-07-22T01:02:17;9.60;;;6.28;;
41755;SDS011;27435;48.480;9.258;2022-07-22T01:04:43;14.13;;;7.35;;
41755;SDS011;27435;48.480;9.258;2022-07-22T01:07:08;13.77;;;6.45;;
41755;SDS011;27435;48.480;9.258;2022-07-22T01:09:34;9.80;;;5.90;;
41755;SDS011;27435;48.480;9.258;2022-07-22T01:12:00;8.68;;;6.88;;
41755;SDS011;27435;48.480;9.258;2022-07-22T01:14:26;10.20;;;6.43;;
41755;SDS011;27435;48.480;9.258;2022-07-22T01:16:52;8.32;;;5.97;;
41755;SDS011;27435;48.480;9.258;2022-07-22T01:19:18;8.68;;;6.07;;
41755;SDS011;27435;48.480;9.258;2022-07-22T01:21:43;13.02;;;6.20;;
41755;SDS011;27435;48.480;9.258;2022-07-22T01:24:09;9.07;;;7.03;;
41755;SDS011;27435;48.480;9.258;2022-07-22T01:26:35;11.07;;;6.88;;
41755;SDS011;27435;48.480;9.258;2022-07-22T01:29:01;8.50;;;5.90;;
41755;SDS011;27435;48.480;9.258;2022-07-22T01:31:27;12.38;;;6.90;;
41755;SDS011;27435;48.480;9.258;2022-07-22T01:33:54;9.40;;;6.40;;
41755;SDS011;27435;48.480;9.258;2022-07-22T01:36:20;12.65;;;7.13;;
41755;SDS011;27435;48.480;9.258;2022-07-22T01:38:45;10.00;;;6.43;;
41755;SDS011;27435;48.480;9.258;2022-07-22T01:41:11;14.25;;;6.40;;
41755;SDS011;27435;48.480;9.258;2022-07-22T01:43:37;12.60;;;7.63;;
41755;SDS011;27435;48.480;9.258;2022-07-22T01:46:02;9.63;;;7.15;;
41755;SDS011;27435;48.480;9.258;2022-07-22T01:48:28;13.30;;;6.82;;
41755;SDS011;27435;48.480;9.258;2022-07-22T01:50:54;9.32;;;6.60;;
41755;SDS011;27435;48.480;9.258;2022-07-22T01:53:20;9.30;;;6.60;;
41755;SDS011;27435;48.480;9.258;2022-07-22T01:55:45;13.90;;;7.22;;
41755;SDS011;27435;48.480;9.258;2022-07-22T01:58:12;9.80;;;7.00;;
41755;SDS011;27435;48.480;9.258;2022-07-22T02:00:37;10.55;;;7.13;;
41755;SDS011;27435;48.480;9.258;2022-07-22T02:03:04;8.90;;;6.50;;
41755;SDS011;27435;48.480;9.258;2022-07-22T02:05:30;13.27;;;7.38;;
41755;SDS011;27435;48.480;9.258;2022-07-22T02:07:59;17.83;;;7.63;;
41755;SDS011;27435;48.480;9.258;2022-07-22T02:10:29;13.60;;;6.95;;
41755;SDS011;27435;48.480;9.258;2022-07-22T02:12:56;8.93;;;7.07;;
41755;SDS011;27435;48.480;9.258;2022-07-22T02:15:22;9.60;;;6.68;;
41755;SDS011;27435;48.480;9.258;2022-07-22T02:17:48;13.30;;;7.15;;
41755;SDS011;27435;48.480;9.258;2022-07-22T02:20:14;12.70;;;6.70;;
41755;SDS011;27435;48.480;9.258;2022-07-22T02:22:39;9.63;;;7.03;;
41755;SDS011;27435;48.480;9.258;2022-07-22T02:25:05;10.25;;;6.85;;
41755;SDS011;27435;48.480;9.258;2022-07-22T02:27:31;12.70;;;7.47;;
41755;SDS011;27435;48.480;9.258;2022-07-22T02:29:57;11.63;;;7.32;;
41755;SDS011;27435;48.480;9.258;2022-07-22T02:32:22;12.23;;;7.05;;
41755;SDS011;27435;48.480;9.258;2022-07-22T02:34:48;9.48;;;6.90;;
41755;SDS011;27435;48.480;9.258;2022-07-22T02:37:14;11.68;;;7.07;;
41755;SDS011;27435;48.480;9.258;2022-07-22T02:39:39;8.32;;;6.53;;
41755;SDS011;27435;48.480;9.258;2022-07-22T02:42:05;9.43;;;6.85;;
41755;SDS011;27435;48.480;9.258;2022-07-22T02:44:31;11.40;;;7.35;;
41755;SDS011;27435;48.480;9.258;2022-07-22T02:46:56;11.18;;;7.75;;
41755;SDS011;27435;48.480;9.258;2022-07-22T02:49:22;8.85;;;6.95;;
41755;SDS011;27435;48.480;9.258;2022-07-22T02:51:47;11.50;;;8.07;;
41755;SDS011;27435;48.480;9.258;2022-07-22T02:54:13;12.98;;;8.18;;
41755;SDS011;27435;48.480;9.258;2022-07-22T02:56:39;13.63;;;7.65;;
41755;SDS011;27435;48.480;9.258;2022-07-22T02:59:04;11.70;;;7.60;;
41755;SDS011;27435;48.480;9.258;2022-07-22T03:01:30;11.00;;;7.13;;
41755;SDS011;27435;48.480;9.258;2022-07-22T03:03:55;12.00;;;7.70;;
41755;SDS011;27435;48.480;9.258;2022-07-22T03:06:21;10.23;;;7.35;;
41755;SDS011;27435;48.480;9.258;2022-07-22T03:08:47;11.20;;;8.27;;
41755;SDS011;27435;48.480;9.258;2022-07-22T03:11:12;9.80;;;7.35;;
41755;SDS011;27435;48.480;9.258;2022-07-22T03:13:38;11.27;;;8.27;;
41755;SDS011;27435;48.480;9.258;2022-07-22T03:16:04;11.90;;;7.30;;
41755;SDS011;27435;48.480;9.258;2022-07-22T03:18:29;11.57;;;8.00;;
41755;SDS011;27435;48.480;9.258;2022-07-22T03:20:55;11.95;;;7.65;;
41755;SDS011;27435;48.480;9.258;2022-07-22T03:23:20;11.25;;;7.65;;
41755;SDS011;27435;48.480;9.258;2022-07-22T03:25:46;11.30;;;7.50;;
41755;SDS011;27435;48.480;9.258;2022-07-22T03:28:12;11.48;;;7.55;;
41755;SDS011;27435;48.480;9.258;2022-07-22T03:30:38;10.18;;;7.43;;
41755;SDS011;27435;48.480;9.258;2022-07-22T03:33:03;12.52;;;8.00;;
41755;SDS011;27435;48.480;9.258;2022-07-22T03:35:29;10.95;;;7.75;;
41755;SDS011;27435;48.480;9.258;2022-07-22T03:37:55;13.10;;;8.23;;
41755;SDS011;27435;48.480;9.258;2022-07-22T03:40:20;11.65;;;7.85;;
41755;SDS011;27435;48.480;9.258;2022-07-22T03:42:46;10.73;;;7.68;;
41755;SDS011;27435;48.480;9.258;2022-07-22T03:45:11;11.48;;;7.85;;
41755;SDS011;27435;48.480;9.258;2022-07-22T03:47:38;9.98;;;8.02;;
41755;SDS011;27435;48.480;9.258;2022-07-22T03:50:04;12.73;;;7.97;;
41755;SDS011;27435;48.480;9.258;2022-07-22T03:52:30;11.00;;;7.57;;
41755;SDS011;27435;48.480;9.258;2022-07-22T03:54:56;9.60;;;7.50;;
41755;SDS011;27435;48.480;9.258;2022-07-22T03:57:21;10.50;;;7.50;;
41755;SDS011;27435;48.480;9.258;2022-07-22T03:59:47;10.10;;;7.75;;
41755;SDS011;27435;48.480;9.258;2022-07-22T04:02:13;12.35;;;8.07;;
41755;SDS011;27435;48.480;9.258;2022-07-22T04:04:39;11.85;;;7.32;;
41755;SDS011;27435;48.480;9.258;2022-07-22T04:07:04;11.50;;;7.60;;
41755;SDS011;27435;48.480;9.258;2022-07-22T04:09:30;10.70;;;7.68;;
41755;SDS011;27435;48.480;9.258;2022-07-22T04:11:56;10.73;;;8.18;;
41755;SDS011;27435;48.480;9.258;2022-07-22T04:14:21;13.80;;;8.48;;
41755;SDS011;27435;48.480;9.258;2022-07-22T04:16:47;13.45;;;8.02;;
41755;SDS011;27435;48.480;9.258;2022-07-22T04:19:13;12.68;;;8.48;;
41755;SDS011;27435;48.480;9.258;2022-07-22T04:21:39;9.80;;;7.32;;
41755;SDS011;27435;48.480;9.258;2022-07-22T04:24:05;11.38;;;8.13;;
41755;SDS011;27435;48.480;9.258;2022-07-22T04:26:31;11.23;;;8.70;;
41755;SDS011;27435;48.480;9.258;2022-07-22T04:28:57;13.65;;;8.35;;
41755;SDS011;27435;48.480;9.258;2022-07-22T04:31:23;11.10;;;8.10;;
41755;SDS011;27435;48.480;9.258;2022-07-22T04:33:48;11.82;;;8.60;;
41755;SDS011;27435;48.480;9.258;2022-07-22T04:36:14;10.75;;;8.35;;
41755;SDS011;27435;48.480;9.258;2022-07-22T04:38:39;10.48;;;8.07;;
41755;SDS011;27435;48.480;9.258;2022-07-22T04:41:05;11.95;;;8.27;;
41755;SDS011;27435;48.480;9.258;2022-07-22T04:43:31;11.50;;;7.75;;
41755;SDS011;27435;48.480;9.258;2022-07-22T04:45:56;9.73;;;7.20;;
41755;SDS011;27435;48.480;9.258;2022-07-22T04:48:22;9.18;;;7.28;;
41755;SDS011;27435;48.480;9.258;2022-07-22T04:50:48;12.35;;;8.05;;
41755;SDS011;27435;48.480;9.258;2022-07-22T04:53:13;13.10;;;8.13;;
41755;SDS011;27435;48.480;9.258;2022-07-22T04:55:39;11.32;;;7.55;;
41755;SDS011;27435;48.480;9.258;2022-07-22T04:58:05;11.00;;;7.20;;
41755;SDS011;27435;48.480;9.258;2022-07-22T05:00:30;12.15;;;7.07;;
41755;SDS011;27435;48.480;9.258;2022-07-22T05:02:56;14.07;;;6.97;;
41755;SDS011;27435;48.480;9.258;2022-07-22T05:05:22;10.93;;;7.13;;
41755;SDS011;27435;48.480;9.258;2022-07-22T05:07:48;12.68;;;6.63;;
41755;SDS011;27435;48.480;9.258;2022-07-22T05:10:14;15.82;;;7.03;;
41755;SDS011;27435;48.480;9.258;2022-07-22T05:12:39;11.38;;;7.22;;
41755;SDS011;27435;48.480;9.258;2022-07-22T05:15:05;8.63;;;6.50;;
41755;SDS011;27435;48.480;9.258;2022-07-22T05:17:33;11.27;;;5.88;;
41755;SDS011;27435;48.480;9.258;2022-07-22T05:19:58;10.50;;;7.28;;
41755;SDS011;27435;48.480;9.258;2022-07-22T05:22:24;10.10;;;7.22;;
41755;SDS011;27435;48.480;9.258;2022-07-22T05:24:49;11.27;;;7.07;;
41755;SDS011;27435;48.480;9.258;2022-07-22T05:27:15;10.75;;;6.25;;
41755;SDS011;27435;48.480;9.258;2022-07-22T05:29:41;11.73;;;6.65;;
41755;SDS011;27435;48.480;9.258;2022-07-22T05:32:07;14.65;;;7.00;;
41755;SDS011;27435;48.480;9.258;2022-07-22T05:34:32;10.40;;;6.30;;
41755;SDS011;27435;48.480;9.258;2022-07-22T05:36:58;12.05;;;6.35;;
41755;SDS011;27435;48.480;9.258;2022-07-22T05:39:24;10.63;;;7.13;;
41755;SDS011;27435;48.480;9.258;2022-07-22T05:41:49;8.57;;;6.70;;
41755;SDS011;27435;48.480;9.258;2022-07-22T05:44:15;9.60;;;6.35;;
41755;SDS011;27435;48.480;9.258;2022-07-22T05:46:40;10.77;;;6.85;;
41755;SDS011;27435;48.480;9.258;2022-07-22T05:49:06;9.55;;;6.72;;
41755;SDS011;27435;48.480;9.258;2022-07-22T05:51:33;8.68;;;6.10;;
41755;SDS011;27435;48.480;9.258;2022-07-22T05:53:59;10.18;;;5.80;;
41755;SDS011;27435;48.480;9.258;2022-07-22T05:56:27;8.80;;;4.95;;
41755;SDS011;27435;48.480;9.258;2022-07-22T05:58:52;7.20;;;4.68;;
41755;SDS011;27435;48.480;9.258;2022-07-22T06:01:18;6.05;;;4.80;;
41755;SDS011;27435;48.480;9.258;2022-07-22T06:03:44;6.32;;;4.65;;
41755;SDS011;27435;48.480;9.258;2022-07-22T06:06:10;7.40;;;4.53;;
41755;SDS011;27435;48.480;9.258;2022-07-22T06:08:36;7.68;;;5.03;;
41755;SDS011;27435;48.480;9.258;2022-07-22T06:11:02;10.13;;;4.60;;
41755;SDS011;27435;48.480;9.258;2022-07-22T06:13:28;7.82;;;5.07;;
41755;SDS011;27435;48.480;9.258;2022-07-22T06:15:53;10.23;;;5.00;;
41755;SDS011;27435;48.480;9.258;2022-07-22T06:18:19;9.65;;;4.63;;
41755;SDS011;27435;48.480;9.258;2022-07-22T06:20:45;7.57;;;4.57;;
41755;SDS011;27435;48.480;9.258;2022-07-22T06:23:10;9.82;;;4.50;;
41755;SDS011;27435;48.480;9.258;2022-07-22T06:25:36;6.38;;;4.53;;
41755;SDS011;27435;48.480;9.258;2022-07-22T06:28:02;7.80;;;4.40;;
41755;SDS011;27435;48.480;9.258;2022-07-22T06:30:28;9.40;;;4.88;;
41755;SDS011;27435;48.480;9.258;2022-07-22T06:32:54;8.23;;;4.88;;
41755;SDS011;27435;48.480;9.258;2022-07-22T06:35:20;6.93;;;4.53;;
41755;SDS011;27435;48.480;9.258;2022-07-22T06:37:46;8.05;;;4.85;;
41755;SDS011;27435;48.480;9.258;2022-07-22T06:40:12;6.85;;;4.45;;
41755;SDS011;27435;48.480;9.258;2022-07-22T06:42:38;6.70;;;4.55;;
41755;SDS011;27435;48.480;9.258;2022-07-22T06:45:04;10.68;;;4.78;;
41755;SDS011;27435;48.480;9.258;2022-07-22T06:47:30;8.07;;;4.95;;
41755;SDS011;27435;48.480;9.258;2022-07-22T06:49:57;9.27;;;5.25;;
41755;SDS011;27435;48.480;9.258;2022-07-22T06:52:22;9.90;;;5.00;;
41755;SDS011;27435;48.480;9.258;2022-07-22T06:54:48;7.85;;;4.80;;
41755;SDS011;27435;48.480;9.258;2022-07-22T06:57:14;10.05;;;5.53;;
41755;SDS011;27435;48.480;9.258;2022-07-22T06:59:40;6.72;;;4.85;;
41755;SDS011;27435;48.480;9.258;2022-07-22T07:02:06;10.38;;;5.28;;
41755;SDS011;27435;48.480;9.258;2022-07-22T07:04:32;6.60;;;4.53;;
41755;SDS011;27435;48.480;9.258;2022-07-22T07:06:57;7.82;;;4.30;;
41755;SDS011;27435;48.480;9.258;2022-07-22T07:09:23;8.20;;;4.85;;
41755;SDS011;27435;48.480;9.258;2022-07-22T07:11:49;6.78;;;4.90;;
41755;SDS011;27435;48.480;9.258;2022-07-22T07:14:14;10.27;;;5.40;;
41755;SDS011;27435;48.480;9.258;2022-07-22T07:16:40;12.73;;;4.60;;
41755;SDS011;27435;48.480;9.258;2022-07-22T07:19:06;8.35;;;4.82;;
41755;SDS011;27435;48.480;9.258;2022-07-22T07:21:31;8.98;;;5.22;;
41755;SDS011;27435;48.480;9.258;2022-07-22T07:23:57;8.38;;;5.28;;
41755;SDS011;27435;48.480;9.258;2022-07-22T07:26:23;13.57;;;5.43;;
41755;SDS011;27435;48.480;9.258;2022-07-22T07:28:49;7.25;;;5.43;;
41755;SDS011;27435;48.480;9.258;2022-07-22T07:31:14;11.00;;;5.93;;
41755;SDS011;27435;48.480;9.258;2022-07-22T07:33:40;10.35;;;5.80;;
41755;SDS011;27435;48.480;9.258;2022-07-22T07:36:06;7.68;;;5.53;;
41755;SDS011;27435;48.480;9.258;2022-07-22T07:38:31;11.32;;;6.32;;
41755;SDS011;27435;48.480;9.258;2022-07-22T07:40:59;10.25;;;5.93;;
41755;SDS011;27435;48.480;9.258;2022-07-22T07:43:24;8.32;;;5.65;;
41755;SDS011;27435;48.480;9.258;2022-07-22T07:45:50;9.15;;;5.95;;
41755;SDS011;27435;48.480;9.258;2022-07-22T07:48:16;7.53;;;6.03;;
41755;SDS011;27435;48.480;9.258;2022-07-22T07:50:41;13.77;;;6.28;;
41755;SDS011;27435;48.480;9.258;2022-07-22T07:53:07;14.05;;;6.72;;
41755;SDS011;27435;48.480;9.258;2022-07-22T07:55:33;15.65;;;6.30;;
41755;SDS011;27435;48.480;9.258;2022-07-22T07:58:01;7.57;;;5.57;;
41755;SDS011;27435;48.480;9.258;2022-07-22T08:00:27;12.90;;;5.75;;
41755;SDS011;27435;48.480;9.258;2022-07-22T08:02:54;12.23;;;6.25;;
41755;SDS011;27435;48.480;9.258;2022-07-22T08:05:21;8.00;;;5.97;;
41755;SDS011;27435;48.480;9.258;2022-07-22T08:07:47;10.63;;;6.40;;
41755;SDS011;27435;48.480;9.258;2022-07-22T08:10:14;12.65;;;5.95;;
41755;SDS011;27435;48.480;9.258;2022-07-22T08:12:41;11.38;;;6.55;;
41755;SDS011;27435;48.480;9.258;2022-07-22T08:15:06;13.07;;;6.38;;
41755;SDS011;27435;48.480;9.258;2022-07-22T08:17:33;15.32;;;6.15;;
41755;SDS011;27435;48.480;9.258;2022-07-22T08:19:59;9.82;;;5.93;;
41755;SDS011;27435;48.480;9.258;2022-07-22T08:22:25;8.10;;;5.55;;
41755;SDS011;27435;48.480;9.258;2022-07-22T08:24:50;8.93;;;6.53;;
41755;SDS011;27435;48.480;9.258;2022-07-22T08:27:16;12.43;;;5.75;;
41755;SDS011;27435;48.480;9.258;2022-07-22T08:29:41;13.43;;;6.03;;
41755;SDS011;27435;48.480;9.258;2022-07-22T08:32:07;11.85;;;6.63;;
41755;SDS011;27435;48.480;9.258;2022-07-22T08:34:33;9.98;;;5.88;;
41755;SDS011;27435;48.480;9.258;2022-07-22T08:36:59;11.27;;;5.68;;
41755;SDS011;27435;48.480;9.258;2022-07-22T08:39:25;8.88;;;6.57;;
41755;SDS011;27435;48.480;9.258;2022-07-22T08:41:51;11.07;;;5.97;;
41755;SDS011;27435;48.480;9.258;2022-07-22T08:44:17;8.55;;;6.10;;
41755;SDS011;27435;48.480;9.258;2022-07-22T08:46:46;9.57;;;5.93;;
41755;SDS011;27435;48.480;9.258;2022-07-22T08:49:15;9.63;;;6.22;;
41755;SDS011;27435;48.480;9.258;2022-07-22T08:51:41;9.63;;;6.53;;
41755;SDS011;27435;48.480;9.258;2022-07-22T08:54:07;7.78;;;6.07;;
41755;SDS011;27435;48.480;9.258;2022-07-22T08:56:34;8.82;;;5.82;;
41755;SDS011;27435;48.480;9.258;2022-07-22T08:58:59;9.57;;;6.03;;
41755;SDS011;27435;48.480;9.258;2022-07-22T09:01:25;8.73;;;6.07;;
41755;SDS011;27435;48.480;9.258;2022-07-22T09:03:55;10.00;;;6.15;;
41755;SDS011;27435;48.480;9.258;2022-07-22T09:06:22;10.93;;;6.03;;
41755;SDS011;27435;48.480;9.258;2022-07-22T09:08:57;9.48;;;6.22;;
41755;SDS011;27435;48.480;9.258;2022-07-22T09:11:25;9.50;;;6.28;;
41755;SDS011;27435;48.480;9.258;2022-07-22T09:13:53;11.07;;;6.22;;
41755;SDS011;27435;48.480;9.258;2022-07-22T09:16:39;10.95;;;6.10;;
41755;SDS011;27435;48.480;9.258;2022-07-22T09:19:09;9.45;;;6.90;;
41755;SDS011;27435;48.480;9.258;2022-07-22T09:21:36;9.70;;;5.82;;
41755;SDS011;27435;48.480;9.258;2022-07-22T09:24:06;8.82;;;5.93;;
41755;SDS011;27435;48.480;9.258;2022-07-22T09:26:33;8.18;;;5.60;;
41755;SDS011;27435;48.480;9.258;2022-07-22T09:29:00;8.60;;;6.55;;
41755;SDS011;27435;48.480;9.258;2022-07-22T09:31:28;7.00;;;5.97;;
41755;SDS011;27435;48.480;9.258;2022-07-22T09:33:57;9.80;;;6.32;;
41755;SDS011;27435;48.480;9.258;2022-07-22T09:36:23;12.93;;;6.15;;
41755;SDS011;27435;48.480;9.258;2022-07-22T09:38:49;13.13;;;6.75;;
41755;SDS011;27435;48.480;9.258;2022-07-22T09:41:15;9.40;;;6.20;;
41755;SDS011;27435;48.480;9.258;2022-07-22T09:43:41;11.43;;;6.80;;
41755;SDS011;27435;48.480;9.258;2022-07-22T09:46:08;13.00;;;6.28;;
41755;SDS011;27435;48.480;9.258;2022-07-22T09:48:34;7.63;;;5.70;;
41755;SDS011;27435;48.480;9.258;2022-07-22T09:51:02;14.27;;;6.38;;
41755;SDS011;27435;48.480;9.258;2022-07-22T09:53:29;8.05;;;5.97;;
41755;SDS011;27435;48.480;9.258;2022-07-22T09:55:56;7.45;;;5.35;;
41755;SDS011;27435;48.480;9.258;2022-07-22T09:58:23;8.02;;;5.57;;
41755;SDS011;27435;48.480;9.258;2022-07-22T10:00:49;10.63;;;5.53;;
41755;SDS011;27435;48.480;9.258;2022-07-22T10:03:21;10.43;;;5.85;;
41755;SDS011;27435;48.480;9.258;2022-07-22T10:05:51;7.55;;;6.22;;
41755;SDS011;27435;48.480;9.258;2022-07-22T10:08:18;10.45;;;6.70;;
41755;SDS011;27435;48.480;9.258;2022-07-22T10:10:45;8.95;;;5.50;;
41755;SDS011;27435;48.480;9.258;2022-07-22T10:13:10;7.97;;;5.65;;
41755;SDS011;27435;48.480;9.258;2022-07-22T10:15:36;10.30;;;5.80;;
41755;SDS011;27435;48.480;9.258;2022-07-22T10:18:07;10.85;;;6.50;;
41755;SDS011;27435;48.480;9.258;2022-07-22T10:20:37;11.98;;;6.20;;
41755;SDS011;27435;48.480;9.258;2022-07-22T10:23:07;9.88;;;6.07;;
41755;SDS011;27435;48.480;9.258;2022-07-22T10:25:53;11.35;;;6.00;;
41755;SDS011;27435;48.480;9.258;2022-07-22T10:28:25;12.65;;;6.63;;
41755;SDS011;27435;48.480;9.258;2022-07-22T10:33:43;9.13;;;5.88;;
41755;SDS011;27435;48.480;9.258;2022-07-22T10:36:10;10.35;;;6.05;;
41755;SDS011;27435;48.480;9.258;2022-07-22T10:38:36;9.60;;;5.93;;
41755;SDS011;27435;48.480;9.258;2022-07-22T10:41:03;8.77;;;6.10;;
41755;SDS011;27435;48.480;9.258;2022-07-22T10:43:32;8.75;;;5.50;;
41755;SDS011;27435;48.480;9.258;2022-07-22T10:46:13;7.32;;;5.20;;
41755;SDS011;27435;48.480;9.258;2022-07-22T10:51:08;9.82;;;5.95;;
41755;SDS011;27435;48.480;9.258;2022-07-22T10:56:28;9.68;;;6.38;;
41755;SDS011;27435;48.480;9.258;2022-07-22T10:58:59;7.30;;;5.25;;
41755;SDS011;27435;48.480;9.258;2022-07-22T11:01:36;8.23;;;5.68;;
41755;SDS011;27435;48.480;9.258;2022-07-22T11:04:22;10.90;;;6.28;;
41755;SDS011;27435;48.480;9.258;2022-07-22T11:06:51;8.00;;;4.93;;
41755;SDS011;27435;48.480;9.258;2022-07-22T11:09:21;8.25;;;5.75;;
41755;SDS011;27435;48.480;9.258;2022-07-22T11:11:56;9.18;;;5.43;;
41755;SDS011;27435;48.480;9.258;2022-07-22T11:14:34;9.77;;;4.88;;
41755;SDS011;27435;48.480;9.258;2022-07-22T11:17:04;8.05;;;5.20;;
41755;SDS011;27435;48.480;9.258;2022-07-22T11:19:32;9.40;;;4.70;;
41755;SDS011;27435;48.480;9.258;2022-07-22T11:21:59;12.93;;;6.13;;
41755;SDS011;27435;48.480;9.258;2022-07-22T11:24:29;6.07;;;4.78;;
41755;SDS011;27435;48.480;9.258;2022-07-22T11:26:56;6.30;;;5.10;;
41755;SDS011;27435;48.480;9.258;2022-07-22T11:29:24;8.80;;;4.57;;
41755;SDS011;27435;48.480;9.258;2022-07-22T11:32:02;6.25;;;4.80;;
41755;SDS011;27435;48.480;9.258;2022-07-22T11:34:29;8.15;;;4.63;;
41755;SDS011;27435;48.480;9.258;2022-07-22T11:36:55;6.93;;;4.25;;
41755;SDS011;27435;48.480;9.258;2022-07-22T11:39:23;9.00;;;5.07;;
41755;SDS011;27435;48.480;9.258;2022-07-22T11:41:54;7.50;;;4.55;;
41755;SDS011;27435;48.480;9.258;2022-07-22T11:44:22;7.43;;;5.15;;
41755;SDS011;27435;48.480;9.258;2022-07-22T11:46:49;8.93;;;5.07;;
41755;SDS011;27435;48.480;9.258;2022-07-22T11:49:17;7.75;;;4.88;;
41755;SDS011;27435;48.480;9.258;2022-07-22T11:51:44;8.00;;;4.55;;
41755;SDS011;27435;48.480;9.258;2022-07-22T11:54:10;9.38;;;5.60;;
41755;SDS011;27435;48.480;9.258;2022-07-22T11:56:36;10.27;;;5.25;;
41755;SDS011;27435;48.480;9.258;2022-07-22T11:59:02;7.93;;;5.05;;
41755;SDS011;27435;48.480;9.258;2022-07-22T12:01:32;6.07;;;4.85;;
41755;SDS011;27435;48.480;9.258;2022-07-22T12:04:10;6.95;;;5.38;;
41755;SDS011;27435;48.480;9.258;2022-07-22T12:06:38;9.75;;;5.63;;
41755;SDS011;27435;48.480;9.258;2022-07-22T12:11:39;8.25;;;4.82;;
41755;SDS011;27435;48.480;9.258;2022-07-22T12:14:10;5.93;;;4.50;;
41755;SDS011;27435;48.480;9.258;2022-07-22T12:16:38;7.88;;;4.60;;
41755;SDS011;27435;48.480;9.258;2022-07-22T12:19:08;7.43;;;4.57;;
41755;SDS011;27435;48.480;9.258;2022-07-22T12:21:48;7.53;;;4.93;;
41755;SDS011;27435;48.480;9.258;2022-07-22T12:26:53;6.70;;;4.72;;
41755;SDS011;27435;48.480;9.258;2022-07-22T12:31:53;10.07;;;4.80;;
41755;SDS011;27435;48.480;9.258;2022-07-22T12:36:58;9.95;;;4.65;;
41755;SDS011;27435;48.480;9.258;2022-07-22T12:39:27;7.20;;;4.80;;
41755;SDS011;27435;48.480;9.258;2022-07-22T12:41:54;7.78;;;4.78;;
41755;SDS011;27435;48.480;9.258;2022-07-22T12:44:26;5.43;;;4.00;;
41755;SDS011;27435;48.480;9.258;2022-07-22T12:46:53;11.13;;;4.28;;
41755;SDS011;27435;48.480;9.258;2022-07-22T12:49:21;6.75;;;4.57;;
41755;SDS011;27435;48.480;9.258;2022-07-22T12:52:04;6.28;;;4.75;;
41755;SDS011;27435;48.480;9.258;2022-07-22T12:54:40;5.60;;;4.18;;
41755;SDS011;27435;48.480;9.258;2022-07-22T12:57:08;5.45;;;4.13;;
41755;SDS011;27435;48.480;9.258;2022-07-22T12:59:35;9.70;;;4.53;;
41755;SDS011;27435;48.480;9.258;2022-07-22T13:02:01;6.15;;;4.30;;
41755;SDS011;27435;48.480;9.258;2022-07-22T13:04:28;6.57;;;4.00;;
41755;SDS011;27435;48.480;9.258;2022-07-22T13:06:53;6.55;;;4.57;;
41755;SDS011;27435;48.480;9.258;2022-07-22T13:09:19;5.03;;;4.03;;
41755;SDS011;27435;48.480;9.258;2022-07-22T13:11:45;7.10;;;3.92;;
41755;SDS011;27435;48.480;9.258;2022-07-22T13:14:11;5.43;;;4.20;;
41755;SDS011;27435;48.480;9.258;2022-07-22T13:16:38;6.15;;;3.97;;
41755;SDS011;27435;48.480;9.258;2022-07-22T13:19:04;7.22;;;4.45;;
41755;SDS011;27435;48.480;9.258;2022-07-22T13:21:30;7.60;;;4.20;;
41755;SDS011;27435;48.480;9.258;2022-07-22T13:23:56;7.55;;;4.10;;
41755;SDS011;27435;48.480;9.258;2022-07-22T13:26:22;7.63;;;4.25;;
41755;SDS011;27435;48.480;9.258;2022-07-22T13:28:49;5.28;;;3.70;;
41755;SDS011;27435;48.480;9.258;2022-07-22T13:31:15;6.05;;;3.67;;
41755;SDS011;27435;48.480;9.258;2022-07-22T13:33:40;6.82;;;4.03;;
41755;SDS011;27435;48.480;9.258;2022-07-22T13:36:06;6.53;;;3.80;;
41755;SDS011;27435;48.480;9.258;2022-07-22T13:38:32;6.10;;;3.88;;
41755;SDS011;27435;48.480;9.258;2022-07-22T13:40:57;5.20;;;3.30;;
41755;SDS011;27435;48.480;9.258;2022-07-22T13:43:24;5.20;;;3.65;;
41755;SDS011;27435;48.480;9.258;2022-07-22T13:45:50;5.25;;;3.88;;
41755;SDS011;27435;48.480;9.258;2022-07-22T13:48:17;4.47;;;3.47;;
41755;SDS011;27435;48.480;9.258;2022-07-22T13:50:44;4.07;;;3.08;;
41755;SDS011;27435;48.480;9.258;2022-07-22T13:53:10;6.43;;;3.70;;
41755;SDS011;27435;48.480;9.258;2022-07-22T13:55:39;5.97;;;3.45;;
41755;SDS011;27435;48.480;9.258;2022-07-22T13:58:05;5.07;;;3.65;;
41755;SDS011;27435;48.480;9.258;2022-07-22T14:00:32;5.70;;;4.10;;
41755;SDS011;27435;48.480;9.258;2022-07-22T14:02:58;7.03;;;4.47;;
41755;SDS011;27435;48.480;9.258;2022-07-22T14:05:24;6.65;;;3.97;;
41755;SDS011;27435;48.480;9.258;2022-07-22T14:07:50;7.47;;;3.85;;
41755;SDS011;27435;48.480;9.258;2022-07-22T14:10:16;6.63;;;4.22;;
41755;SDS011;27435;48.480;9.258;2022-07-22T14:12:42;6.30;;;3.65;;
41755;SDS011;27435;48.480;9.258;2022-07-22T14:15:08;6.45;;;4.93;;
41755;SDS011;27435;48.480;9.258;2022-07-22T14:17:34;5.97;;;4.05;;
41755;SDS011;27435;48.480;9.258;2022-07-22T14:20:00;5.43;;;3.95;;
41755;SDS011;27435;48.480;9.258;2022-07-22T14:22:26;6.13;;;4.00;;
41755;SDS011;27435;48.480;9.258;2022-07-22T14:24:52;5.72;;;3.70;;
41755;SDS011;27435;48.480;9.258;2022-07-22T14:27:17;6.35;;;4.32;;
41755;SDS011;27435;48.480;9.258;2022-07-22T14:29:43;9.23;;;4.38;;
41755;SDS011;27435;48.480;9.258;2022-07-22T14:32:09;6.45;;;4.53;;
41755;SDS011;27435;48.480;9.258;2022-07-22T14:34:34;6.50;;;4.28;;
41755;SDS011;27435;48.480;9.258;2022-07-22T14:37:00;8.18;;;4.07;;
41755;SDS011;27435;48.480;9.258;2022-07-22T14:39:25;7.25;;;4.40;;
41755;SDS011;27435;48.480;9.258;2022-07-22T14:41:51;8.90;;;4.30;;
41755;SDS011;27435;48.480;9.258;2022-07-22T14:44:17;5.00;;;4.30;;
41755;SDS011;27435;48.480;9.258;2022-07-22T14:46:42;4.70;;;3.90;;
41755;SDS011;27435;48.480;9.258;2022-07-22T14:49:08;5.57;;;4.07;;
41755;SDS011;27435;48.480;9.258;2022-07-22T14:51:34;5.38;;;4.15;;
41755;SDS011;27435;48.480;9.258;2022-07-22T14:53:59;6.20;;;4.18;;
41755;SDS011;27435;48.480;9.258;2022-07-22T14:56:25;7.40;;;4.18;;
41755;SDS011;27435;48.480;9.258;2022-07-22T14:58:51;6.93;;;4.68;;